Time;durP1;ratioP1;P1;durP2;ratioP2;P2;SDS_P1;SDS_P2;PMS_P1;PMS_P2;Temp;Humidity;BMP_temperature;BMP_pressure;BME280_temperature;BME280_humidity;BME280_pressure;Samples;Min_cycle;Max_cycle;Signal;HPM_P1;HPM_P2
2021/12/18 00:00:49;;;;;;;;;;;8.40;99.90;;;;;;4991810;28;19914;-68
2021/12/18 00:03:14;;;;;;;;;;;8.40;99.90;;;;;;4996429;28;20106;-67
2021/12/18 00:05:40;;;;;;;;;;;8.30;99.90;;;;;;4991095;28;19914;-68
2021/12/18 00:08:06;;;;;;;;;;;8.20;99.90;;;;;;5004285;28;19928;-68
2021/12/18 00:10:32;;;;;;;;;;;8.20;99.90;;;;;;4998875;28;19914;-66
2021/12/18 00:12:57;;;;;;;;;;;8.20;99.90;;;;;;5010368;28;19921;-65
2021/12/18 00:15:23;;;;;;;;;;;8.30;99.90;;;;;;5003803;28;19917;-66
2021/12/18 00:17:49;;;;;;;;;;;8.20;99.90;;;;;;5006692;28;19984;-68
2021/12/18 00:20:16;;;;;;;;;;;8.20;99.90;;;;;;5007811;28;19944;-66
2021/12/18 00:22:42;;;;;;;;;;;8.30;99.90;;;;;;5006443;28;19909;-66
2021/12/18 00:25:07;;;;;;;;;;;8.20;99.90;;;;;;5005589;28;19937;-67
2021/12/18 00:27:33;;;;;;;;;;;8.30;99.90;;;;;;5019649;28;20122;-67
2021/12/18 00:29:59;;;;;;;;;;;8.20;99.90;;;;;;4991445;28;19922;-66
2021/12/18 00:32:24;;;;;;;;;;;8.30;99.90;;;;;;4985625;28;19957;-66
2021/12/18 00:34:49;;;;;;;;;;;8.30;99.90;;;;;;4986195;28;19977;-68
2021/12/18 00:37:15;;;;;;;;;;;8.30;99.90;;;;;;4987760;28;20268;-68
2021/12/18 00:39:50;;;;;;;;;;;8.30;99.90;;;;;;4998098;28;20403;-66
2021/12/18 00:44:50;;;;;;;;;;;8.50;99.90;;;;;;5006244;28;19914;-68
2021/12/18 00:47:16;;;;;;;;;;;8.40;99.90;;;;;;5020170;28;19996;-67
2021/12/18 00:49:41;;;;;;;;;;;8.40;99.90;;;;;;5004494;28;19913;-67
2021/12/18 00:52:07;;;;;;;;;;;8.40;99.90;;;;;;5005575;28;19910;-68
2021/12/18 00:54:34;;;;;;;;;;;8.40;99.90;;;;;;5004697;28;19913;-67
2021/12/18 00:57:00;;;;;;;;;;;8.30;99.90;;;;;;4991594;28;20429;-65
2021/12/18 00:59:26;;;;;;;;;;;8.30;99.90;;;;;;4986577;28;20029;-65
2021/12/18 01:01:51;;;;;;;;;;;8.40;99.90;;;;;;4986615;28;19914;-68
2021/12/18 01:04:17;;;;;;;;;;;8.40;99.90;;;;;;5002996;28;20370;-68
2021/12/18 01:06:43;;;;;;;;;;;8.50;99.90;;;;;;4994585;28;20080;-68
2021/12/18 01:09:08;;;;;;;;;;;8.40;99.90;;;;;;5001892;28;19973;-70
2021/12/18 01:11:41;;;;;;;;;;;8.40;99.90;;;;;;4994742;28;19917;-69
2021/12/18 01:14:37;;;;;;;;;;;8.40;99.90;;;;;;5002135;28;20389;-70
2021/12/18 01:24:56;;;;;;;;;;;8.30;99.90;;;;;;4995956;28;19925;-69
2021/12/18 01:27:22;;;;;;;;;;;8.30;99.90;;;;;;4996554;28;19917;-69
2021/12/18 01:29:48;;;;;;;;;;;8.40;99.90;;;;;;5000657;28;20044;-69
2021/12/18 01:32:14;;;;;;;;;;;8.30;99.90;;;;;;5000014;28;20247;-69
2021/12/18 01:34:39;;;;;;;;;;;8.30;99.90;;;;;;4998765;28;20484;-69
2021/12/18 01:37:05;;;;;;;;;;;8.40;99.90;;;;;;4996882;28;19917;-68
2021/12/18 01:39:30;;;;;;;;;;;8.40;99.90;;;;;;5003643;28;20317;-67
2021/12/18 01:47:04;;;;;;;;;;;8.30;99.90;;;;;;5005605;28;19918;-67
2021/12/18 01:52:19;;;;;;;;;;;8.50;99.90;;;;;;5003315;28;19967;-68
2021/12/18 01:54:46;;;;;;;;;;;8.50;99.90;;;;;;5002130;28;19909;-68
2021/12/18 01:57:11;;;;;;;;;;;8.30;99.90;;;;;;5002182;28;20366;-67
2021/12/18 01:59:43;;;;;;;;;;;8.20;99.90;;;;;;5001225;28;19944;-67
2021/12/18 02:02:09;;;;;;;;;;;8.20;99.90;;;;;;5005481;28;20272;-67
2021/12/18 02:04:34;;;;;;;;;;;8.20;99.90;;;;;;5010460;28;20472;-68
2021/12/18 02:07:00;;;;;;;;;;;8.30;99.90;;;;;;4998391;28;19920;-66
2021/12/18 02:09:35;;;;;;;;;;;8.30;99.90;;;;;;5009107;28;19980;-65
2021/12/18 02:12:02;;;;;;;;;;;8.30;99.90;;;;;;5009354;28;20261;-68
2021/12/18 02:19:32;;;;;;;;;;;8.30;99.90;;;;;;5023198;28;19924;-67
2021/12/18 02:20:21;;;;;;;;;;;8.30;99.90;;;;;;5000316;28;19967;-66
2021/12/18 02:22:47;;;;;;;;;;;8.30;99.90;;;;;;5004812;28;20326;-67
2021/12/18 02:25:12;;;;;;;;;;;8.30;99.90;;;;;;4989883;28;19941;-66
2021/12/18 02:27:38;;;;;;;;;;;8.40;99.90;;;;;;5016628;28;19913;-68
2021/12/18 02:30:04;;;;;;;;;;;8.40;99.90;;;;;;4998084;28;19914;-67
2021/12/18 02:32:29;;;;;;;;;;;8.40;99.90;;;;;;5005592;28;19964;-66
2021/12/18 02:34:58;;;;;;;;;;;8.40;99.90;;;;;;5009579;28;19945;-67
2021/12/18 02:37:25;;;;;;;;;;;8.40;99.90;;;;;;5001577;28;20012;-68
2021/12/18 02:42:34;;;;;;;;;;;8.40;99.90;;;;;;5011143;28;19910;-68
2021/12/18 02:45:00;;;;;;;;;;;8.30;99.90;;;;;;4998913;28;19917;-69
2021/12/18 02:47:26;;;;;;;;;;;8.30;99.90;;;;;;5006515;28;20427;-67
2021/12/18 02:49:51;;;;;;;;;;;8.40;99.90;;;;;;5007568;28;19917;-67
2021/12/18 02:52:18;;;;;;;;;;;8.40;99.90;;;;;;4999420;28;20015;-69
2021/12/18 02:54:43;;;;;;;;;;;8.30;99.90;;;;;;5006876;28;19910;-69
2021/12/18 02:57:09;;;;;;;;;;;8.30;99.90;;;;;;5015395;28;20601;-69
2021/12/18 02:59:42;;;;;;;;;;;8.40;99.90;;;;;;5012099;28;20410;-68
2021/12/18 03:02:07;;;;;;;;;;;8.50;99.90;;;;;;5025803;28;19971;-69
2021/12/18 03:04:35;;;;;;;;;;;8.40;99.90;;;;;;5010216;28;19914;-69
2021/12/18 03:07:03;;;;;;;;;;;8.40;99.90;;;;;;5009135;28;20399;-68
2021/12/18 03:27:48;;;;;;;;;;;8.30;99.90;;;;;;5005595;28;20287;-69
2021/12/18 03:30:14;;;;;;;;;;;8.40;99.90;;;;;;5006184;28;20308;-70
2021/12/18 03:32:40;;;;;;;;;;;8.40;99.90;;;;;;5006907;28;20008;-68
2021/12/18 03:35:06;;;;;;;;;;;8.40;99.90;;;;;;5006380;28;19926;-71
2021/12/18 03:37:34;;;;;;;;;;;8.40;99.90;;;;;;5022075;28;20346;-69
2021/12/18 03:39:59;;;;;;;;;;;8.30;99.90;;;;;;4994458;28;19910;-69
2021/12/18 03:42:25;;;;;;;;;;;8.30;99.90;;;;;;4997378;28;19910;-68
2021/12/18 03:44:51;;;;;;;;;;;8.30;99.90;;;;;;5003359;28;20039;-70
2021/12/18 03:47:16;;;;;;;;;;;8.30;99.90;;;;;;5006805;28;20334;-68
2021/12/18 03:49:42;;;;;;;;;;;8.30;99.90;;;;;;5006056;28;19937;-67
2021/12/18 03:52:07;;;;;;;;;;;8.20;99.90;;;;;;5005641;28;19957;-68
2021/12/18 03:54:32;;;;;;;;;;;8.20;99.90;;;;;;5006467;28;19933;-69
2021/12/18 03:56:58;;;;;;;;;;;8.20;99.90;;;;;;5007114;28;20358;-69
2021/12/18 03:59:23;;;;;;;;;;;8.20;99.90;;;;;;5004445;28;19910;-70
2021/12/18 04:01:49;;;;;;;;;;;8.20;99.90;;;;;;4985401;28;20354;-70
2021/12/18 04:04:15;;;;;;;;;;;8.20;99.90;;;;;;4985636;28;20295;-69
2021/12/18 04:06:42;;;;;;;;;;;8.20;99.90;;;;;;4997185;28;19909;-69
2021/12/18 04:09:08;;;;;;;;;;;8.30;99.90;;;;;;5019862;28;19913;-69
2021/12/18 04:11:33;;;;;;;;;;;8.20;99.90;;;;;;5020114;28;20364;-69
2021/12/18 04:14:03;;;;;;;;;;;8.20;99.90;;;;;;4998196;28;22376;-70
2021/12/18 04:16:29;;;;;;;;;;;8.20;99.90;;;;;;5005489;28;20315;-69
2021/12/18 04:18:54;;;;;;;;;;;8.00;99.90;;;;;;5004977;28;20285;-70
2021/12/18 04:21:20;;;;;;;;;;;8.10;99.90;;;;;;5005453;28;19914;-70
2021/12/18 04:23:45;;;;;;;;;;;8.00;99.90;;;;;;5005716;28;19921;-69
2021/12/18 04:26:11;;;;;;;;;;;7.90;99.90;;;;;;5005752;28;19909;-70
2021/12/18 04:28:36;;;;;;;;;;;7.90;99.90;;;;;;5005140;28;20020;-69
2021/12/18 04:31:02;;;;;;;;;;;7.90;99.90;;;;;;5004627;28;20369;-69
2021/12/18 04:33:27;;;;;;;;;;;7.90;99.90;;;;;;4987891;28;19914;-69
2021/12/18 04:35:53;;;;;;;;;;;8.00;99.90;;;;;;4993801;28;19947;-69
2021/12/18 04:38:18;;;;;;;;;;;8.00;99.90;;;;;;5004696;28;19914;-70
2021/12/18 04:40:44;;;;;;;;;;;8.00;99.90;;;;;;5020230;28;20281;-69
2021/12/18 04:43:09;;;;;;;;;;;8.00;99.90;;;;;;4990090;28;19909;-69
2021/12/18 04:45:35;;;;;;;;;;;8.00;99.90;;;;;;5001534;28;19918;-68
2021/12/18 04:48:01;;;;;;;;;;;7.80;99.90;;;;;;5004601;28;20064;-69
2021/12/18 04:50:26;;;;;;;;;;;7.80;99.90;;;;;;5006229;28;20012;-70
2021/12/18 04:52:51;;;;;;;;;;;7.70;99.90;;;;;;5007230;28;19910;-69
2021/12/18 04:55:17;;;;;;;;;;;7.70;99.90;;;;;;5005683;28;20326;-70
2021/12/18 04:57:43;;;;;;;;;;;7.70;99.90;;;;;;5004874;28;20230;-70
2021/12/18 05:00:10;;;;;;;;;;;7.70;99.90;;;;;;5003468;28;20083;-69
2021/12/18 05:02:40;;;;;;;;;;;7.80;99.90;;;;;;5019367;28;20298;-69
2021/12/18 05:05:06;;;;;;;;;;;7.90;99.90;;;;;;5003960;28;20411;-69
2021/12/18 05:07:32;;;;;;;;;;;7.80;99.90;;;;;;5003880;28;19923;-70
2021/12/18 05:09:57;;;;;;;;;;;7.90;99.90;;;;;;4999080;28;20276;-69
2021/12/18 05:12:23;;;;;;;;;;;8.00;99.90;;;;;;4993863;28;20008;-69
2021/12/18 05:14:48;;;;;;;;;;;7.90;99.90;;;;;;5003695;28;19917;-69
2021/12/18 05:17:14;;;;;;;;;;;8.00;99.90;;;;;;5004733;28;19909;-70
2021/12/18 05:19:39;;;;;;;;;;;8.00;99.90;;;;;;5004476;28;19936;-69
2021/12/18 05:22:05;;;;;;;;;;;8.00;99.90;;;;;;5000676;28;19914;-70
2021/12/18 05:24:31;;;;;;;;;;;7.90;99.90;;;;;;5000797;28;20243;-69
2021/12/18 05:26:56;;;;;;;;;;;8.00;99.90;;;;;;5000702;28;20147;-69
2021/12/18 05:29:22;;;;;;;;;;;8.00;99.90;;;;;;5000701;28;19925;-70
2021/12/18 05:31:48;;;;;;;;;;;8.00;99.90;;;;;;5002981;28;20405;-69
2021/12/18 05:34:21;;;;;;;;;;;8.00;99.90;;;;;;5002429;28;19917;-69
2021/12/18 05:39:22;;;;;;;;;;;7.90;99.90;;;;;;5011324;28;20378;-70
2021/12/18 05:41:50;;;;;;;;;;;7.90;99.90;;;;;;5009996;28;19936;-69
2021/12/18 05:44:17;;;;;;;;;;;7.80;99.90;;;;;;5003856;28;20118;-69
2021/12/18 05:46:42;;;;;;;;;;;7.70;99.90;;;;;;5005790;28;19941;-69
2021/12/18 05:49:08;;;;;;;;;;;7.70;99.90;;;;;;5002096;28;20441;-70
2021/12/18 05:51:34;;;;;;;;;;;7.70;99.90;;;;;;4997846;28;19910;-70
2021/12/18 05:53:59;;;;;;;;;;;7.70;99.90;;;;;;5003743;28;19968;-69
2021/12/18 05:56:25;;;;;;;;;;;7.80;99.90;;;;;;5004855;28;20191;-69
2021/12/18 05:58:50;;;;;;;;;;;7.70;99.90;;;;;;5002399;28;19949;-69
2021/12/18 06:01:16;;;;;;;;;;;7.70;99.90;;;;;;5007223;28;20004;-70
2021/12/18 06:03:42;;;;;;;;;;;7.70;99.90;;;;;;5011545;28;19975;-68
2021/12/18 06:06:07;;;;;;;;;;;7.70;99.90;;;;;;5003105;28;19917;-69
2021/12/18 06:08:35;;;;;;;;;;;7.70;99.90;;;;;;5004318;28;19910;-70
2021/12/18 06:11:06;;;;;;;;;;;7.80;99.90;;;;;;5002538;28;20281;-69
2021/12/18 06:13:31;;;;;;;;;;;7.70;99.90;;;;;;5002961;28;19969;-69
2021/12/18 06:15:57;;;;;;;;;;;7.70;99.90;;;;;;4987699;28;20011;-69
2021/12/18 06:18:22;;;;;;;;;;;7.70;99.90;;;;;;4988528;28;20112;-69
2021/12/18 06:20:48;;;;;;;;;;;7.70;99.90;;;;;;4987726;28;20032;-69
2021/12/18 06:23:13;;;;;;;;;;;7.70;99.90;;;;;;4997842;28;19918;-68
2021/12/18 06:25:39;;;;;;;;;;;7.60;99.90;;;;;;5006837;28;20322;-69
2021/12/18 06:28:04;;;;;;;;;;;7.50;99.90;;;;;;5007886;28;20375;-68
2021/12/18 06:30:30;;;;;;;;;;;7.60;99.90;;;;;;5005114;28;19921;-70
2021/12/18 06:32:55;;;;;;;;;;;7.60;99.90;;;;;;4995761;28;19921;-70
2021/12/18 06:35:21;;;;;;;;;;;7.60;99.90;;;;;;4997905;28;20092;-69
2021/12/18 06:37:46;;;;;;;;;;;7.70;99.90;;;;;;4986660;28;20619;-70
2021/12/18 06:40:12;;;;;;;;;;;7.70;99.90;;;;;;4992054;28;20213;-69
2021/12/18 06:42:38;;;;;;;;;;;7.80;99.90;;;;;;5007238;28;19914;-69
2021/12/18 06:45:04;;;;;;;;;;;7.70;99.90;;;;;;5020905;28;20048;-69
2021/12/18 06:47:29;;;;;;;;;;;7.70;99.90;;;;;;5000002;28;19959;-69
2021/12/18 06:49:55;;;;;;;;;;;7.80;99.90;;;;;;5006366;28;20445;-70
2021/12/18 06:52:20;;;;;;;;;;;7.80;99.90;;;;;;5006163;28;19914;-68
2021/12/18 06:54:45;;;;;;;;;;;7.90;99.90;;;;;;4993968;28;19918;-68
2021/12/18 06:57:11;;;;;;;;;;;7.90;99.90;;;;;;4986374;28;19914;-68
2021/12/18 06:59:36;;;;;;;;;;;7.90;99.90;;;;;;4987008;28;19933;-68
2021/12/18 07:02:02;;;;;;;;;;;7.90;99.90;;;;;;4986141;28;20546;-69
2021/12/18 07:04:27;;;;;;;;;;;7.90;99.90;;;;;;5006613;28;20206;-69
2021/12/18 07:06:54;;;;;;;;;;;8.00;99.90;;;;;;5004648;28;20016;-69
2021/12/18 07:09:20;;;;;;;;;;;8.10;99.90;;;;;;5006026;28;20355;-70
2021/12/18 07:11:45;;;;;;;;;;;8.10;99.90;;;;;;4995468;28;19913;-69
2021/12/18 07:14:12;;;;;;;;;;;8.00;99.90;;;;;;5003770;28;19924;-70
2021/12/18 07:16:38;;;;;;;;;;;8.00;99.90;;;;;;5002983;28;19960;-70
2021/12/18 07:19:03;;;;;;;;;;;8.10;99.90;;;;;;5001726;28;19953;-68
2021/12/18 07:21:29;;;;;;;;;;;7.90;99.90;;;;;;5004648;28;19932;-69
2021/12/18 07:23:54;;;;;;;;;;;7.90;99.90;;;;;;5002953;28;20209;-70
2021/12/18 07:26:20;;;;;;;;;;;7.70;99.90;;;;;;5002117;28;19913;-69
2021/12/18 07:28:45;;;;;;;;;;;7.50;99.90;;;;;;5001635;28;20066;-69
2021/12/18 07:31:11;;;;;;;;;;;7.40;99.90;;;;;;5000937;28;19924;-69
2021/12/18 07:33:38;;;;;;;;;;;7.40;99.90;;;;;;5005751;28;19920;-70
2021/12/18 07:36:07;;;;;;;;;;;7.40;99.90;;;;;;5009091;28;20210;-69
2021/12/18 07:38:33;;;;;;;;;;;7.30;99.90;;;;;;5007025;28;20012;-71
2021/12/18 07:40:58;;;;;;;;;;;7.30;99.90;;;;;;5006382;28;19998;-70
2021/12/18 07:43:23;;;;;;;;;;;7.20;99.90;;;;;;5003671;28;19996;-70
2021/12/18 07:45:49;;;;;;;;;;;7.20;99.90;;;;;;5001723;28;20161;-70
2021/12/18 07:48:14;;;;;;;;;;;7.20;99.90;;;;;;5002202;28;20036;-69
2021/12/18 07:50:40;;;;;;;;;;;7.20;99.90;;;;;;5001207;28;19959;-69
2021/12/18 07:53:05;;;;;;;;;;;7.30;99.90;;;;;;5001778;28;20023;-69
2021/12/18 07:55:31;;;;;;;;;;;7.20;99.90;;;;;;5001937;28;19924;-71
2021/12/18 07:57:57;;;;;;;;;;;7.10;99.90;;;;;;5002918;28;20016;-70
2021/12/18 08:00:22;;;;;;;;;;;7.10;99.90;;;;;;5003332;28;20046;-69
2021/12/18 08:02:48;;;;;;;;;;;7.20;99.90;;;;;;5003242;28;19913;-65
2021/12/18 08:05:14;;;;;;;;;;;6.80;99.90;;;;;;5003393;28;19913;-68
2021/12/18 08:07:40;;;;;;;;;;;6.80;99.90;;;;;;5000169;28;19917;-67
2021/12/18 08:10:06;;;;;;;;;;;6.90;99.90;;;;;;5000194;28;20173;-67
2021/12/18 08:12:32;;;;;;;;;;;6.90;99.90;;;;;;5001577;28;19964;-67
2021/12/18 08:14:58;;;;;;;;;;;6.90;99.90;;;;;;4998832;28;19976;-66
2021/12/18 08:17:24;;;;;;;;;;;6.80;99.90;;;;;;4998440;28;19920;-66
2021/12/18 08:19:49;;;;;;;;;;;6.70;99.90;;;;;;4997805;28;19914;-70
2021/12/18 08:22:15;;;;;;;;;;;6.80;99.90;;;;;;5002304;28;19917;-68
2021/12/18 08:24:40;;;;;;;;;;;6.60;99.90;;;;;;5001150;28;20390;-68
2021/12/18 08:27:06;;;;;;;;;;;6.60;99.90;;;;;;4998450;28;20418;-67
2021/12/18 08:29:31;;;;;;;;;;;6.60;99.90;;;;;;5004041;28;20064;-68
2021/12/18 08:31:57;;;;;;;;;;;6.50;99.90;;;;;;4992988;28;20303;-69
2021/12/18 08:34:23;;;;;;;;;;;6.50;99.90;;;;;;4996710;28;20390;-67
2021/12/18 08:36:49;;;;;;;;;;;6.50;99.90;;;;;;5000359;28;20174;-67
2021/12/18 08:39:14;;;;;;;;;;;6.50;99.90;;;;;;5001927;28;19921;-67
2021/12/18 08:41:42;;;;;;;;;;;6.40;99.90;;;;;;4993470;28;20213;-68
2021/12/18 08:44:08;;;;;;;;;;;6.40;99.90;;;;;;4991821;28;19925;-69
2021/12/18 08:46:34;;;;;;;;;;;6.20;99.90;;;;;;5010476;28;19917;-67
2021/12/18 08:48:59;;;;;;;;;;;6.10;99.90;;;;;;4996671;28;20000;-67
2021/12/18 08:51:25;;;;;;;;;;;6.20;99.90;;;;;;4987996;28;20013;-67
2021/12/18 08:53:50;;;;;;;;;;;6.10;99.90;;;;;;4987161;28;20117;-69
2021/12/18 08:56:16;;;;;;;;;;;6.10;99.90;;;;;;5018146;28;19909;-66
2021/12/18 08:58:41;;;;;;;;;;;6.00;99.90;;;;;;4999926;28;19922;-68
2021/12/18 09:01:07;;;;;;;;;;;5.80;99.90;;;;;;5001855;28;19917;-69
2021/12/18 09:03:32;;;;;;;;;;;5.80;99.90;;;;;;5000223;28;19920;-66
2021/12/18 09:05:58;;;;;;;;;;;5.80;99.90;;;;;;5000975;28;19916;-69
2021/12/18 09:08:23;;;;;;;;;;;6.00;99.90;;;;;;5000836;28;19913;-68
2021/12/18 09:10:49;;;;;;;;;;;5.90;99.90;;;;;;5005592;28;20007;-67
2021/12/18 09:13:14;;;;;;;;;;;5.90;99.90;;;;;;5008007;28;20290;-68
2021/12/18 09:15:40;;;;;;;;;;;5.80;99.90;;;;;;5008149;28;19991;-66
2021/12/18 09:18:06;;;;;;;;;;;5.70;99.90;;;;;;5006227;28;20283;-67
2021/12/18 09:20:31;;;;;;;;;;;5.60;99.90;;;;;;4998203;28;20368;-68
2021/12/18 09:22:59;;;;;;;;;;;5.60;99.90;;;;;;4988110;28;19925;-70
2021/12/18 09:25:25;;;;;;;;;;;5.50;99.90;;;;;;4988620;28;19937;-69
2021/12/18 09:27:51;;;;;;;;;;;5.40;99.90;;;;;;5000850;28;20548;-67
2021/12/18 09:30:16;;;;;;;;;;;5.50;99.90;;;;;;5007705;28;19913;-68
2021/12/18 09:32:42;;;;;;;;;;;5.50;99.90;;;;;;5005316;28;20405;-67
2021/12/18 09:35:09;;;;;;;;;;;5.60;99.90;;;;;;5003668;28;19928;-67
2021/12/18 09:37:34;;;;;;;;;;;5.60;99.90;;;;;;5002114;28;20032;-69
2021/12/18 09:40:00;;;;;;;;;;;5.70;99.90;;;;;;4992878;28;20007;-69
2021/12/18 09:42:25;;;;;;;;;;;5.60;99.90;;;;;;5023189;28;19909;-67
2021/12/18 09:44:51;;;;;;;;;;;5.70;99.90;;;;;;5008097;28;19937;-69
2021/12/18 09:47:18;;;;;;;;;;;5.70;99.90;;;;;;5006839;28;19913;-67
2021/12/18 09:49:44;;;;;;;;;;;5.60;99.90;;;;;;4989000;28;20020;-68
2021/12/18 09:52:09;;;;;;;;;;;5.60;99.90;;;;;;4996867;28;20402;-69
2021/12/18 09:54:35;;;;;;;;;;;5.60;99.90;;;;;;5005113;28;19913;-67
2021/12/18 09:57:00;;;;;;;;;;;5.60;99.90;;;;;;5020505;28;20486;-70
2021/12/18 09:59:26;;;;;;;;;;;5.70;99.90;;;;;;5005809;28;19940;-67
2021/12/18 10:01:51;;;;;;;;;;;5.70;99.90;;;;;;4999569;28;20275;-67
2021/12/18 10:04:23;;;;;;;;;;;5.60;99.90;;;;;;5007084;28;19944;-69
2021/12/18 10:06:48;;;;;;;;;;;5.70;99.90;;;;;;4990713;28;19914;-69
2021/12/18 10:09:17;;;;;;;;;;;5.80;99.90;;;;;;5000524;28;20304;-67
2021/12/18 10:11:45;;;;;;;;;;;5.80;99.90;;;;;;5000304;28;19925;-70
2021/12/18 10:14:11;;;;;;;;;;;5.80;99.90;;;;;;5003963;28;19917;-69
2021/12/18 10:16:47;;;;;;;;;;;5.80;99.90;;;;;;5007168;28;20032;-69
2021/12/18 10:19:27;;;;;;;;;;;5.80;99.90;;;;;;4998712;28;20257;-68
2021/12/18 10:21:55;;;;;;;;;;;5.90;99.90;;;;;;4991326;28;20358;-67
2021/12/18 10:24:20;;;;;;;;;;;5.80;99.90;;;;;;5006752;28;20074;-68
2021/12/18 10:26:46;;;;;;;;;;;5.70;99.90;;;;;;5004221;28;20017;-69
2021/12/18 10:29:30;;;;;;;;;;;5.80;99.90;;;;;;5003250;28;19953;-68
2021/12/18 10:32:02;;;;;;;;;;;5.80;99.90;;;;;;4999603;28;19971;-66
2021/12/18 10:34:27;;;;;;;;;;;5.90;99.90;;;;;;5004926;28;19968;-68
2021/12/18 10:37:11;;;;;;;;;;;6.10;99.90;;;;;;5006221;28;19913;-67
2021/12/18 10:39:38;;;;;;;;;;;5.80;99.90;;;;;;5007796;28;20378;-69
2021/12/18 10:42:24;;;;;;;;;;;5.90;99.90;;;;;;4993607;28;19922;-71
2021/12/18 10:44:56;;;;;;;;;;;6.00;99.90;;;;;;4987596;28;19910;-70
2021/12/18 10:47:22;;;;;;;;;;;6.00;99.90;;;;;;5006364;28;19920;-70
2021/12/18 10:49:47;;;;;;;;;;;5.90;99.90;;;;;;4992959;28;20142;-71
2021/12/18 10:52:12;;;;;;;;;;;6.00;99.90;;;;;;4995151;28;19918;-73
2021/12/18 10:54:38;;;;;;;;;;;6.00;99.90;;;;;;4993233;28;20242;-70
2021/12/18 10:57:04;;;;;;;;;;;5.90;99.90;;;;;;5005305;28;19915;-69
2021/12/18 10:59:36;;;;;;;;;;;5.90;99.90;;;;;;5004275;28;19914;-70
2021/12/18 11:02:05;;;;;;;;;;;5.90;99.90;;;;;;5002746;28;20008;-70
2021/12/18 11:04:35;;;;;;;;;;;6.10;99.90;;;;;;5001636;28;20142;-70
2021/12/18 11:07:19;;;;;;;;;;;6.00;99.90;;;;;;5003647;28;20198;-72
2021/12/18 11:10:40;;;;;;;;;;;6.00;99.90;;;;;;5000859;28;19944;-71
2021/12/18 11:15:17;;;;;;;;;;;6.00;99.90;;;;;;5004465;28;20397;-70
2021/12/18 11:17:44;;;;;;;;;;;6.00;99.90;;;;;;5000961;28;19914;-71
2021/12/18 11:20:09;;;;;;;;;;;5.90;99.90;;;;;;5002546;28;19913;-70
2021/12/18 11:22:35;;;;;;;;;;;5.90;99.90;;;;;;5003259;28;19914;-71
2021/12/18 11:25:02;;;;;;;;;;;6.00;99.90;;;;;;5008127;28;20329;-71
2021/12/18 11:27:28;;;;;;;;;;;6.00;99.90;;;;;;5004566;28;20190;-69
2021/12/18 11:29:56;;;;;;;;;;;5.80;99.90;;;;;;5007544;28;19940;-70
2021/12/18 11:32:23;;;;;;;;;;;5.90;99.90;;;;;;5006569;28;19909;-71
2021/12/18 11:34:49;;;;;;;;;;;6.20;99.90;;;;;;5016412;28;19957;-69
2021/12/18 11:37:17;;;;;;;;;;;6.20;99.90;;;;;;5020929;28;19944;-71
2021/12/18 11:39:44;;;;;;;;;;;6.00;99.90;;;;;;5004397;28;19916;-70
2021/12/18 11:42:09;;;;;;;;;;;6.10;99.90;;;;;;4996721;28;20004;-71
2021/12/18 11:44:37;;;;;;;;;;;6.00;99.90;;;;;;5004021;28;20367;-70
2021/12/18 11:47:21;;;;;;;;;;;6.00;99.90;;;;;;5002006;28;19913;-71
2021/12/18 11:49:47;;;;;;;;;;;6.00;99.90;;;;;;5002390;28;19925;-70
2021/12/18 11:52:12;;;;;;;;;;;5.90;99.90;;;;;;5000321;28;19910;-70
2021/12/18 11:54:40;;;;;;;;;;;5.80;99.90;;;;;;5000673;28;19917;-70
2021/12/18 11:57:06;;;;;;;;;;;5.80;99.90;;;;;;5005212;28;19945;-71
2021/12/18 11:59:38;;;;;;;;;;;5.90;99.90;;;;;;5000738;28;19941;-71
2021/12/18 12:02:03;;;;;;;;;;;5.80;99.90;;;;;;5001355;28;20017;-70
2021/12/18 12:04:49;;;;;;;;;;;5.70;99.90;;;;;;4999481;28;20357;-71
2021/12/18 12:07:21;;;;;;;;;;;5.70;99.90;;;;;;4999396;28;20081;-70
2021/12/18 12:10:06;;;;;;;;;;;5.80;99.90;;;;;;5004151;28;19929;-71
2021/12/18 12:12:50;;;;;;;;;;;5.80;99.90;;;;;;5000536;28;19920;-71
2021/12/18 12:15:16;;;;;;;;;;;5.80;99.90;;;;;;4999378;28;20060;-70
2021/12/18 12:17:53;;;;;;;;;;;5.80;99.90;;;;;;5004399;28;20866;-71
2021/12/18 12:20:33;;;;;;;;;;;5.80;99.90;;;;;;5002694;28;19913;-70
2021/12/18 12:23:01;;;;;;;;;;;5.80;99.90;;;;;;5001683;28;19913;-70
2021/12/18 12:25:35;;;;;;;;;;;5.90;99.90;;;;;;5003152;28;19910;-69
2021/12/18 12:28:05;;;;;;;;;;;5.90;99.90;;;;;;5002105;28;20397;-70
2021/12/18 12:30:33;;;;;;;;;;;5.80;99.90;;;;;;5002608;28;19941;-70
2021/12/18 12:33:00;;;;;;;;;;;5.70;99.90;;;;;;5003446;28;20006;-71
2021/12/18 12:35:26;;;;;;;;;;;5.60;99.90;;;;;;5004562;28;20024;-67
2021/12/18 12:37:52;;;;;;;;;;;5.60;99.90;;;;;;5008958;28;19944;-70
2021/12/18 12:40:19;;;;;;;;;;;5.70;99.90;;;;;;5000016;28;20330;-71
2021/12/18 12:43:03;;;;;;;;;;;5.60;99.90;;;;;;4999374;28;19909;-71
2021/12/18 12:45:33;;;;;;;;;;;5.60;99.90;;;;;;5000867;28;19910;-70
2021/12/18 12:47:59;;;;;;;;;;;5.70;99.90;;;;;;5001225;28;19917;-69
2021/12/18 12:50:25;;;;;;;;;;;5.70;99.90;;;;;;4999596;28;20048;-69
2021/12/18 12:52:53;;;;;;;;;;;5.70;99.90;;;;;;5002595;28;20640;-69
2021/12/18 12:55:19;;;;;;;;;;;5.70;99.90;;;;;;5002481;28;20051;-71
2021/12/18 12:57:50;;;;;;;;;;;5.80;99.90;;;;;;4998057;28;19956;-69
2021/12/18 13:00:22;;;;;;;;;;;5.80;99.90;;;;;;5001487;28;19919;-69
2021/12/18 13:02:51;;;;;;;;;;;5.70;99.90;;;;;;5009312;28;20024;-70
2021/12/18 13:05:17;;;;;;;;;;;5.70;99.90;;;;;;5008638;28;19987;-70
2021/12/18 13:07:47;;;;;;;;;;;5.70;99.90;;;;;;5006059;28;19975;-71
2021/12/18 13:10:18;;;;;;;;;;;5.60;99.90;;;;;;5008378;28;19918;-70
2021/12/18 13:12:51;;;;;;;;;;;5.50;99.90;;;;;;5018135;28;20524;-69
2021/12/18 13:15:16;;;;;;;;;;;5.60;99.90;;;;;;5003025;28;19917;-69
2021/12/18 13:17:42;;;;;;;;;;;5.60;99.90;;;;;;5001493;28;19924;-70
2021/12/18 13:20:07;;;;;;;;;;;5.50;99.90;;;;;;5003105;28;19924;-71
2021/12/18 13:22:33;;;;;;;;;;;5.60;99.90;;;;;;5001286;28;19913;-70
2021/12/18 13:25:10;;;;;;;;;;;5.60;99.90;;;;;;5002591;28;20000;-69
2021/12/18 13:27:36;;;;;;;;;;;5.70;99.90;;;;;;5000682;28;19919;-70
2021/12/18 13:30:12;;;;;;;;;;;5.80;99.90;;;;;;4999281;28;19913;-71
2021/12/18 13:32:49;;;;;;;;;;;5.70;99.90;;;;;;5000133;28;19976;-72
2021/12/18 13:35:15;;;;;;;;;;;5.70;99.90;;;;;;5003077;28;19914;-69
2021/12/18 13:37:40;;;;;;;;;;;5.70;99.90;;;;;;5003687;28;19920;-70
2021/12/18 13:40:14;;;;;;;;;;;5.70;99.90;;;;;;5002102;28;20367;-71
2021/12/18 13:42:40;;;;;;;;;;;5.80;99.90;;;;;;5002185;28;19913;-69
2021/12/18 13:45:06;;;;;;;;;;;5.80;99.90;;;;;;5008504;28;20000;-70
2021/12/18 13:47:33;;;;;;;;;;;5.80;99.90;;;;;;5001126;28;20000;-70
2021/12/18 13:50:11;;;;;;;;;;;5.80;99.90;;;;;;4998639;28;19941;-72
2021/12/18 13:52:49;;;;;;;;;;;5.90;99.90;;;;;;5001728;28;20016;-68
2021/12/18 13:55:21;;;;;;;;;;;5.90;99.90;;;;;;5005059;28;19917;-70
2021/12/18 13:57:57;;;;;;;;;;;5.90;99.90;;;;;;5008573;28;20028;-69
2021/12/18 14:00:23;;;;;;;;;;;5.90;99.90;;;;;;5008572;28;20483;-69
2021/12/18 14:02:48;;;;;;;;;;;5.90;99.90;;;;;;5007790;28;20445;-70
2021/12/18 14:05:14;;;;;;;;;;;6.00;99.90;;;;;;5004200;28;20382;-70
2021/12/18 14:07:40;;;;;;;;;;;5.90;99.90;;;;;;5007350;28;20141;-70
2021/12/18 14:10:07;;;;;;;;;;;5.80;99.90;;;;;;5006142;28;19917;-69
2021/12/18 14:12:33;;;;;;;;;;;5.90;99.90;;;;;;5003325;28;19914;-71
2021/12/18 14:15:00;;;;;;;;;;;5.90;99.90;;;;;;5011080;28;19964;-71
2021/12/18 14:17:25;;;;;;;;;;;6.00;99.90;;;;;;5007348;28;20005;-69
2021/12/18 14:19:53;;;;;;;;;;;6.10;99.90;;;;;;5001835;28;19953;-70
2021/12/18 14:22:22;;;;;;;;;;;6.10;99.90;;;;;;4997833;28;19914;-70
2021/12/18 14:24:57;;;;;;;;;;;6.00;99.90;;;;;;5010834;28;19923;-70
2021/12/18 14:27:23;;;;;;;;;;;6.10;99.90;;;;;;5009386;28;20305;-71
2021/12/18 14:29:50;;;;;;;;;;;6.10;99.90;;;;;;5008453;28;19914;-69
2021/12/18 14:32:16;;;;;;;;;;;6.10;99.90;;;;;;5001323;28;19913;-70
2021/12/18 14:34:43;;;;;;;;;;;6.00;99.90;;;;;;5007559;28;19917;-69
2021/12/18 14:37:12;;;;;;;;;;;6.20;99.90;;;;;;5023637;28;19913;-71
2021/12/18 14:39:50;;;;;;;;;;;6.20;99.90;;;;;;5007974;28;19913;-71
2021/12/18 14:42:20;;;;;;;;;;;6.30;99.90;;;;;;5008292;28;19909;-69
2021/12/18 14:44:52;;;;;;;;;;;6.30;99.90;;;;;;5023587;28;19920;-71
2021/12/18 14:47:17;;;;;;;;;;;6.30;99.90;;;;;;5009627;28;20383;-69
2021/12/18 14:49:53;;;;;;;;;;;6.20;99.90;;;;;;5008458;28;19913;-70
2021/12/18 14:52:18;;;;;;;;;;;6.20;99.90;;;;;;5008488;28;19914;-71
2021/12/18 14:54:48;;;;;;;;;;;6.30;99.90;;;;;;5009213;28;19921;-70
2021/12/18 14:57:31;;;;;;;;;;;6.30;99.90;;;;;;5024339;28;19910;-71
2021/12/18 15:00:30;;;;;;;;;;;6.30;99.90;;;;;;5006735;28;19914;-69
2021/12/18 15:03:06;;;;;;;;;;;6.30;99.90;;;;;;4984498;28;19917;-70
2021/12/18 15:05:52;;;;;;;;;;;6.40;99.90;;;;;;5008087;28;19913;-70
2021/12/18 15:08:34;;;;;;;;;;;6.30;99.90;;;;;;5012810;28;19909;-72
2021/12/18 15:11:09;;;;;;;;;;;6.30;99.90;;;;;;5023580;28;19913;-71
2021/12/18 15:13:35;;;;;;;;;;;6.10;99.90;;;;;;5009292;28;19913;-69
2021/12/18 15:16:11;;;;;;;;;;;6.00;99.90;;;;;;5008760;28;19923;-69
2021/12/18 15:18:37;;;;;;;;;;;5.90;99.90;;;;;;5008435;28;19917;-72
2021/12/18 15:21:03;;;;;;;;;;;6.00;99.90;;;;;;5007117;28;19963;-70